sensor_id;sensor_type;location;lat;lon;timestamp;P1;durP1;ratioP1;P2;durP2;ratioP2
69629;SDS011;56857;52.212;5.496;2023-04-19T00:00:28;13.18;;;8.43;;
69629;SDS011;56857;52.212;5.496;2023-04-19T00:02:53;14.40;;;8.88;;
69629;SDS011;56857;52.212;5.496;2023-04-19T00:05:18;14.00;;;8.95;;
69629;SDS011;56857;52.212;5.496;2023-04-19T00:07:44;14.30;;;8.63;;
69629;SDS011;56857;52.212;5.496;2023-04-19T00:10:09;14.57;;;8.40;;
69629;SDS011;56857;52.212;5.496;2023-04-19T00:12:35;15.93;;;8.90;;
69629;SDS011;56857;52.212;5.496;2023-04-19T00:15:00;16.05;;;9.18;;
69629;SDS011;56857;52.212;5.496;2023-04-19T00:17:25;15.43;;;8.40;;
69629;SDS011;56857;52.212;5.496;2023-04-19T00:19:51;13.80;;;9.13;;
69629;SDS011;56857;52.212;5.496;2023-04-19T00:22:16;13.95;;;8.50;;
69629;SDS011;56857;52.212;5.496;2023-04-19T00:24:41;13.82;;;9.07;;
69629;SDS011;56857;52.212;5.496;2023-04-19T00:27:07;15.20;;;9.10;;
69629;SDS011;56857;52.212;5.496;2023-04-19T00:29:32;15.63;;;9.20;;
69629;SDS011;56857;52.212;5.496;2023-04-19T00:31:58;16.45;;;8.95;;
69629;SDS011;56857;52.212;5.496;2023-04-19T00:34:23;14.07;;;9.55;;
69629;SDS011;56857;52.212;5.496;2023-04-19T00:36:48;15.05;;;9.15;;
69629;SDS011;56857;52.212;5.496;2023-04-19T00:39:14;18.33;;;9.65;;
69629;SDS011;56857;52.212;5.496;2023-04-19T00:41:39;16.38;;;10.38;;
69629;SDS011;56857;52.212;5.496;2023-04-19T00:44:04;17.50;;;10.40;;
69629;SDS011;56857;52.212;5.496;2023-04-19T00:46:30;15.55;;;10.13;;
69629;SDS011;56857;52.212;5.496;2023-04-19T00:48:55;15.77;;;9.82;;
69629;SDS011;56857;52.212;5.496;2023-04-19T00:51:21;16.30;;;10.38;;
69629;SDS011;56857;52.212;5.496;2023-04-19T00:53:47;15.73;;;10.18;;
69629;SDS011;56857;52.212;5.496;2023-04-19T00:56:13;17.05;;;10.68;;
69629;SDS011;56857;52.212;5.496;2023-04-19T00:58:39;17.65;;;9.63;;
69629;SDS011;56857;52.212;5.496;2023-04-19T01:01:04;16.65;;;10.63;;
69629;SDS011;56857;52.212;5.496;2023-04-19T01:03:30;15.95;;;9.07;;
69629;SDS011;56857;52.212;5.496;2023-04-19T01:05:56;17.45;;;10.52;;
69629;SDS011;56857;52.212;5.496;2023-04-19T01:08:22;16.48;;;10.63;;
69629;SDS011;56857;52.212;5.496;2023-04-19T01:10:47;16.52;;;10.23;;
69629;SDS011;56857;52.212;5.496;2023-04-19T01:13:13;17.95;;;11.23;;
69629;SDS011;56857;52.212;5.496;2023-04-19T01:15:38;15.87;;;10.33;;
69629;SDS011;56857;52.212;5.496;2023-04-19T01:18:03;18.58;;;11.15;;
69629;SDS011;56857;52.212;5.496;2023-04-19T01:20:29;17.80;;;11.57;;
69629;SDS011;56857;52.212;5.496;2023-04-19T01:22:54;19.17;;;10.40;;
69629;SDS011;56857;52.212;5.496;2023-04-19T01:25:20;16.73;;;10.32;;
69629;SDS011;56857;52.212;5.496;2023-04-19T01:27:45;14.55;;;9.13;;
69629;SDS011;56857;52.212;5.496;2023-04-19T01:30:10;18.67;;;11.20;;
69629;SDS011;56857;52.212;5.496;2023-04-19T01:32:36;16.00;;;9.65;;
69629;SDS011;56857;52.212;5.496;2023-04-19T01:35:01;17.70;;;11.20;;
69629;SDS011;56857;52.212;5.496;2023-04-19T01:37:27;16.45;;;10.27;;
69629;SDS011;56857;52.212;5.496;2023-04-19T01:39:52;16.93;;;11.70;;
69629;SDS011;56857;52.212;5.496;2023-04-19T01:42:18;20.42;;;12.20;;
69629;SDS011;56857;52.212;5.496;2023-04-19T01:44:43;16.97;;;11.10;;
69629;SDS011;56857;52.212;5.496;2023-04-19T01:47:08;16.48;;;10.57;;
69629;SDS011;56857;52.212;5.496;2023-04-19T01:49:34;18.20;;;10.40;;
69629;SDS011;56857;52.212;5.496;2023-04-19T01:51:59;17.10;;;12.45;;
69629;SDS011;56857;52.212;5.496;2023-04-19T01:54:24;16.67;;;10.82;;
69629;SDS011;56857;52.212;5.496;2023-04-19T01:56:50;15.65;;;10.75;;
69629;SDS011;56857;52.212;5.496;2023-04-19T01:59:15;18.20;;;11.40;;
69629;SDS011;56857;52.212;5.496;2023-04-19T02:01:40;18.10;;;10.82;;
69629;SDS011;56857;52.212;5.496;2023-04-19T02:04:06;18.67;;;11.17;;
69629;SDS011;56857;52.212;5.496;2023-04-19T02:06:31;16.48;;;10.30;;
69629;SDS011;56857;52.212;5.496;2023-04-19T02:08:56;16.05;;;10.52;;
69629;SDS011;56857;52.212;5.496;2023-04-19T02:11:22;14.50;;;10.18;;
69629;SDS011;56857;52.212;5.496;2023-04-19T02:13:47;15.35;;;9.38;;
69629;SDS011;56857;52.212;5.496;2023-04-19T02:16:14;14.93;;;10.00;;
69629;SDS011;56857;52.212;5.496;2023-04-19T02:18:39;17.17;;;10.85;;
69629;SDS011;56857;52.212;5.496;2023-04-19T02:21:05;16.33;;;9.63;;
69629;SDS011;56857;52.212;5.496;2023-04-19T02:23:31;15.00;;;9.93;;
69629;SDS011;56857;52.212;5.496;2023-04-19T02:25:57;16.60;;;9.77;;
69629;SDS011;56857;52.212;5.496;2023-04-19T02:28:22;13.25;;;8.57;;
69629;SDS011;56857;52.212;5.496;2023-04-19T02:30:47;15.25;;;10.32;;
69629;SDS011;56857;52.212;5.496;2023-04-19T02:33:13;21.73;;;11.40;;
69629;SDS011;56857;52.212;5.496;2023-04-19T02:35:39;18.63;;;10.68;;
69629;SDS011;56857;52.212;5.496;2023-04-19T02:38:04;15.82;;;11.07;;
69629;SDS011;56857;52.212;5.496;2023-04-19T02:40:30;14.80;;;9.45;;
69629;SDS011;56857;52.212;5.496;2023-04-19T02:42:55;15.52;;;9.90;;
69629;SDS011;56857;52.212;5.496;2023-04-19T02:45:21;14.70;;;9.95;;
69629;SDS011;56857;52.212;5.496;2023-04-19T02:47:46;14.10;;;9.65;;
69629;SDS011;56857;52.212;5.496;2023-04-19T02:50:13;14.20;;;9.15;;
69629;SDS011;56857;52.212;5.496;2023-04-19T02:52:40;13.88;;;9.20;;
69629;SDS011;56857;52.212;5.496;2023-04-19T02:55:05;17.73;;;7.53;;
69629;SDS011;56857;52.212;5.496;2023-04-19T02:57:31;15.20;;;9.27;;
69629;SDS011;56857;52.212;5.496;2023-04-19T02:59:57;20.10;;;10.57;;
69629;SDS011;56857;52.212;5.496;2023-04-19T03:02:22;17.08;;;9.20;;
69629;SDS011;56857;52.212;5.496;2023-04-19T03:04:47;16.30;;;8.98;;
69629;SDS011;56857;52.212;5.496;2023-04-19T03:07:13;15.47;;;9.00;;
69629;SDS011;56857;52.212;5.496;2023-04-19T03:09:38;15.63;;;8.80;;
69629;SDS011;56857;52.212;5.496;2023-04-19T03:12:04;17.85;;;9.43;;
69629;SDS011;56857;52.212;5.496;2023-04-19T03:14:31;14.70;;;9.07;;
69629;SDS011;56857;52.212;5.496;2023-04-19T03:16:56;15.00;;;9.13;;
69629;SDS011;56857;52.212;5.496;2023-04-19T03:19:21;14.32;;;8.35;;
69629;SDS011;56857;52.212;5.496;2023-04-19T03:21:47;14.93;;;8.77;;
69629;SDS011;56857;52.212;5.496;2023-04-19T03:24:12;14.13;;;9.10;;
69629;SDS011;56857;52.212;5.496;2023-04-19T03:26:37;14.63;;;9.00;;
69629;SDS011;56857;52.212;5.496;2023-04-19T03:29:02;14.00;;;8.98;;
69629;SDS011;56857;52.212;5.496;2023-04-19T03:31:28;15.52;;;9.60;;
69629;SDS011;56857;52.212;5.496;2023-04-19T03:33:53;16.40;;;9.02;;
69629;SDS011;56857;52.212;5.496;2023-04-19T03:36:18;16.27;;;8.95;;
69629;SDS011;56857;52.212;5.496;2023-04-19T03:38:44;13.77;;;8.95;;
69629;SDS011;56857;52.212;5.496;2023-04-19T03:41:25;16.77;;;8.80;;
69629;SDS011;56857;52.212;5.496;2023-04-19T03:43:51;14.75;;;10.05;;
69629;SDS011;56857;52.212;5.496;2023-04-19T03:46:16;13.30;;;7.07;;
69629;SDS011;56857;52.212;5.496;2023-04-19T03:48:42;14.25;;;8.70;;
69629;SDS011;56857;52.212;5.496;2023-04-19T03:51:07;14.35;;;8.80;;
69629;SDS011;56857;52.212;5.496;2023-04-19T03:53:33;15.50;;;8.63;;
69629;SDS011;56857;52.212;5.496;2023-04-19T03:55:58;12.75;;;7.97;;
69629;SDS011;56857;52.212;5.496;2023-04-19T03:58:23;13.45;;;8.75;;
69629;SDS011;56857;52.212;5.496;2023-04-19T04:00:49;17.63;;;8.50;;
69629;SDS011;56857;52.212;5.496;2023-04-19T04:03:14;12.27;;;7.83;;
69629;SDS011;56857;52.212;5.496;2023-04-19T04:05:39;14.55;;;8.57;;
69629;SDS011;56857;52.212;5.496;2023-04-19T04:08:05;14.43;;;9.73;;
69629;SDS011;56857;52.212;5.496;2023-04-19T04:10:30;16.48;;;9.18;;
69629;SDS011;56857;52.212;5.496;2023-04-19T04:12:58;14.55;;;8.43;;
69629;SDS011;56857;52.212;5.496;2023-04-19T04:15:23;15.63;;;8.38;;
69629;SDS011;56857;52.212;5.496;2023-04-19T04:17:49;14.93;;;8.45;;
69629;SDS011;56857;52.212;5.496;2023-04-19T04:20:14;12.95;;;8.23;;
69629;SDS011;56857;52.212;5.496;2023-04-19T04:22:40;13.75;;;8.90;;
69629;SDS011;56857;52.212;5.496;2023-04-19T04:25:09;17.55;;;8.73;;
69629;SDS011;56857;52.212;5.496;2023-04-19T04:27:35;14.63;;;9.47;;
69629;SDS011;56857;52.212;5.496;2023-04-19T04:30:00;17.90;;;9.32;;
69629;SDS011;56857;52.212;5.496;2023-04-19T04:32:26;14.27;;;8.73;;
69629;SDS011;56857;52.212;5.496;2023-04-19T04:34:51;14.60;;;8.27;;
69629;SDS011;56857;52.212;5.496;2023-04-19T04:37:17;14.15;;;8.18;;
69629;SDS011;56857;52.212;5.496;2023-04-19T04:39:42;13.60;;;7.90;;
69629;SDS011;56857;52.212;5.496;2023-04-19T04:42:08;14.40;;;9.02;;
69629;SDS011;56857;52.212;5.496;2023-04-19T04:44:33;15.40;;;9.38;;
69629;SDS011;56857;52.212;5.496;2023-04-19T04:47:02;13.40;;;8.10;;
69629;SDS011;56857;52.212;5.496;2023-04-19T04:49:28;15.07;;;8.37;;
69629;SDS011;56857;52.212;5.496;2023-04-19T04:51:54;14.52;;;7.57;;
69629;SDS011;56857;52.212;5.496;2023-04-19T04:54:19;14.43;;;8.05;;
69629;SDS011;56857;52.212;5.496;2023-04-19T04:56:44;13.47;;;8.47;;
69629;SDS011;56857;52.212;5.496;2023-04-19T04:59:10;14.45;;;8.00;;
69629;SDS011;56857;52.212;5.496;2023-04-19T05:01:35;14.77;;;8.25;;
69629;SDS011;56857;52.212;5.496;2023-04-19T05:04:00;13.73;;;7.90;;
69629;SDS011;56857;52.212;5.496;2023-04-19T05:06:25;13.98;;;7.75;;
69629;SDS011;56857;52.212;5.496;2023-04-19T05:08:51;16.17;;;8.82;;
69629;SDS011;56857;52.212;5.496;2023-04-19T05:11:16;13.93;;;8.83;;
69629;SDS011;56857;52.212;5.496;2023-04-19T05:13:42;16.23;;;8.02;;
69629;SDS011;56857;52.212;5.496;2023-04-19T05:16:07;14.63;;;8.35;;
69629;SDS011;56857;52.212;5.496;2023-04-19T05:18:32;14.27;;;8.85;;
69629;SDS011;56857;52.212;5.496;2023-04-19T05:20:58;12.38;;;7.25;;
69629;SDS011;56857;52.212;5.496;2023-04-19T05:23:23;13.43;;;7.63;;
69629;SDS011;56857;52.212;5.496;2023-04-19T05:25:48;14.82;;;8.45;;
69629;SDS011;56857;52.212;5.496;2023-04-19T05:28:14;14.23;;;7.13;;
69629;SDS011;56857;52.212;5.496;2023-04-19T05:30:39;13.80;;;8.30;;
69629;SDS011;56857;52.212;5.496;2023-04-19T05:33:04;14.00;;;8.05;;
69629;SDS011;56857;52.212;5.496;2023-04-19T05:35:30;10.67;;;7.30;;
69629;SDS011;56857;52.212;5.496;2023-04-19T05:37:55;14.20;;;6.57;;
69629;SDS011;56857;52.212;5.496;2023-04-19T05:40:20;13.77;;;7.57;;
69629;SDS011;56857;52.212;5.496;2023-04-19T05:42:46;13.63;;;7.90;;
69629;SDS011;56857;52.212;5.496;2023-04-19T05:45:11;12.77;;;8.25;;
69629;SDS011;56857;52.212;5.496;2023-04-19T05:47:36;11.52;;;7.32;;
69629;SDS011;56857;52.212;5.496;2023-04-19T05:50:05;13.25;;;6.90;;
69629;SDS011;56857;52.212;5.496;2023-04-19T05:52:31;12.05;;;7.50;;
69629;SDS011;56857;52.212;5.496;2023-04-19T05:54:56;12.27;;;7.72;;
69629;SDS011;56857;52.212;5.496;2023-04-19T05:57:22;11.50;;;6.65;;
69629;SDS011;56857;52.212;5.496;2023-04-19T05:59:48;14.32;;;7.53;;
69629;SDS011;56857;52.212;5.496;2023-04-19T06:02:13;11.98;;;6.95;;
69629;SDS011;56857;52.212;5.496;2023-04-19T06:04:38;12.98;;;7.50;;
69629;SDS011;56857;52.212;5.496;2023-04-19T06:07:04;11.30;;;6.05;;
69629;SDS011;56857;52.212;5.496;2023-04-19T06:09:29;12.25;;;6.78;;
69629;SDS011;56857;52.212;5.496;2023-04-19T06:11:54;10.98;;;6.47;;
69629;SDS011;56857;52.212;5.496;2023-04-19T06:14:20;12.50;;;6.22;;
69629;SDS011;56857;52.212;5.496;2023-04-19T06:16:46;11.68;;;6.13;;
69629;SDS011;56857;52.212;5.496;2023-04-19T06:19:11;10.52;;;6.43;;
69629;SDS011;56857;52.212;5.496;2023-04-19T06:21:37;9.57;;;6.00;;
69629;SDS011;56857;52.212;5.496;2023-04-19T06:24:04;9.90;;;5.40;;
69629;SDS011;56857;52.212;5.496;2023-04-19T06:26:30;11.73;;;6.22;;
69629;SDS011;56857;52.212;5.496;2023-04-19T06:28:56;10.48;;;4.97;;
69629;SDS011;56857;52.212;5.496;2023-04-19T06:31:22;13.80;;;5.88;;
69629;SDS011;56857;52.212;5.496;2023-04-19T06:33:48;10.55;;;4.97;;
69629;SDS011;56857;52.212;5.496;2023-04-19T06:36:13;12.32;;;5.57;;
69629;SDS011;56857;52.212;5.496;2023-04-19T06:38:40;10.60;;;5.70;;
69629;SDS011;56857;52.212;5.496;2023-04-19T06:41:05;8.75;;;4.50;;
69629;SDS011;56857;52.212;5.496;2023-04-19T06:43:30;9.80;;;5.93;;
69629;SDS011;56857;52.212;5.496;2023-04-19T06:45:56;11.27;;;4.88;;
69629;SDS011;56857;52.212;5.496;2023-04-19T06:48:22;9.82;;;5.47;;
69629;SDS011;56857;52.212;5.496;2023-04-19T06:50:48;8.63;;;4.88;;
69629;SDS011;56857;52.212;5.496;2023-04-19T06:53:13;11.25;;;5.03;;
69629;SDS011;56857;52.212;5.496;2023-04-19T06:55:38;9.05;;;4.50;;
69629;SDS011;56857;52.212;5.496;2023-04-19T06:58:04;9.95;;;4.53;;
69629;SDS011;56857;52.212;5.496;2023-04-19T07:00:29;9.90;;;4.55;;
69629;SDS011;56857;52.212;5.496;2023-04-19T07:02:55;8.38;;;4.13;;
69629;SDS011;56857;52.212;5.496;2023-04-19T07:05:20;7.63;;;4.47;;
69629;SDS011;56857;52.212;5.496;2023-04-19T07:07:45;8.15;;;4.10;;
69629;SDS011;56857;52.212;5.496;2023-04-19T07:10:10;8.45;;;4.47;;
69629;SDS011;56857;52.212;5.496;2023-04-19T07:12:36;8.10;;;4.40;;
69629;SDS011;56857;52.212;5.496;2023-04-19T07:15:01;9.88;;;4.53;;
69629;SDS011;56857;52.212;5.496;2023-04-19T07:17:27;8.10;;;4.40;;
69629;SDS011;56857;52.212;5.496;2023-04-19T07:19:52;8.90;;;4.00;;
69629;SDS011;56857;52.212;5.496;2023-04-19T07:22:17;7.43;;;3.90;;
69629;SDS011;56857;52.212;5.496;2023-04-19T07:24:43;7.72;;;4.20;;
69629;SDS011;56857;52.212;5.496;2023-04-19T07:27:08;7.75;;;4.35;;
69629;SDS011;56857;52.212;5.496;2023-04-19T07:29:33;8.52;;;3.95;;
69629;SDS011;56857;52.212;5.496;2023-04-19T07:31:59;10.38;;;4.03;;
69629;SDS011;56857;52.212;5.496;2023-04-19T07:34:24;7.97;;;3.10;;
69629;SDS011;56857;52.212;5.496;2023-04-19T07:36:49;9.97;;;3.37;;
69629;SDS011;56857;52.212;5.496;2023-04-19T07:39:15;7.47;;;4.40;;
69629;SDS011;56857;52.212;5.496;2023-04-19T07:41:40;8.83;;;4.20;;
69629;SDS011;56857;52.212;5.496;2023-04-19T07:44:05;12.07;;;4.25;;
69629;SDS011;56857;52.212;5.496;2023-04-19T07:46:31;8.30;;;4.27;;
69629;SDS011;56857;52.212;5.496;2023-04-19T07:48:56;8.60;;;4.68;;
69629;SDS011;56857;52.212;5.496;2023-04-19T07:51:21;7.87;;;4.17;;
69629;SDS011;56857;52.212;5.496;2023-04-19T07:53:47;7.82;;;3.95;;
69629;SDS011;56857;52.212;5.496;2023-04-19T07:56:12;6.90;;;4.25;;
69629;SDS011;56857;52.212;5.496;2023-04-19T07:58:37;7.30;;;3.50;;
69629;SDS011;56857;52.212;5.496;2023-04-19T08:01:03;8.90;;;5.20;;
69629;SDS011;56857;52.212;5.496;2023-04-19T08:03:29;7.85;;;3.72;;
69629;SDS011;56857;52.212;5.496;2023-04-19T08:05:55;8.13;;;3.65;;
69629;SDS011;56857;52.212;5.496;2023-04-19T08:08:20;7.63;;;3.47;;
69629;SDS011;56857;52.212;5.496;2023-04-19T08:10:46;7.27;;;3.30;;
69629;SDS011;56857;52.212;5.496;2023-04-19T08:13:11;6.88;;;3.38;;
69629;SDS011;56857;52.212;5.496;2023-04-19T08:15:36;7.10;;;3.72;;
69629;SDS011;56857;52.212;5.496;2023-04-19T08:18:02;6.47;;;3.10;;
69629;SDS011;56857;52.212;5.496;2023-04-19T08:20:27;9.48;;;3.67;;
69629;SDS011;56857;52.212;5.496;2023-04-19T08:22:52;7.57;;;3.15;;
69629;SDS011;56857;52.212;5.496;2023-04-19T08:25:18;5.30;;;2.97;;
69629;SDS011;56857;52.212;5.496;2023-04-19T08:27:43;5.72;;;3.03;;
69629;SDS011;56857;52.212;5.496;2023-04-19T08:30:08;6.20;;;3.13;;
69629;SDS011;56857;52.212;5.496;2023-04-19T08:32:34;7.93;;;2.33;;
69629;SDS011;56857;52.212;5.496;2023-04-19T08:34:59;6.70;;;3.30;;
69629;SDS011;56857;52.212;5.496;2023-04-19T08:37:25;5.55;;;3.03;;
69629;SDS011;56857;52.212;5.496;2023-04-19T08:39:51;6.00;;;2.65;;
69629;SDS011;56857;52.212;5.496;2023-04-19T08:42:16;5.53;;;2.90;;
69629;SDS011;56857;52.212;5.496;2023-04-19T08:44:42;5.68;;;2.55;;
69629;SDS011;56857;52.212;5.496;2023-04-19T08:47:09;9.48;;;2.70;;
69629;SDS011;56857;52.212;5.496;2023-04-19T08:49:35;5.43;;;2.42;;
69629;SDS011;56857;52.212;5.496;2023-04-19T08:52:05;5.38;;;2.83;;
69629;SDS011;56857;52.212;5.496;2023-04-19T08:54:31;6.03;;;2.63;;
69629;SDS011;56857;52.212;5.496;2023-04-19T08:56:58;7.28;;;2.90;;
69629;SDS011;56857;52.212;5.496;2023-04-19T08:59:24;6.03;;;2.83;;
69629;SDS011;56857;52.212;5.496;2023-04-19T09:01:49;6.22;;;2.70;;
69629;SDS011;56857;52.212;5.496;2023-04-19T09:04:14;6.43;;;2.80;;
69629;SDS011;56857;52.212;5.496;2023-04-19T09:06:41;7.05;;;3.13;;
69629;SDS011;56857;52.212;5.496;2023-04-19T09:09:14;4.70;;;2.35;;
69629;SDS011;56857;52.212;5.496;2023-04-19T09:11:43;4.95;;;2.30;;
69629;SDS011;56857;52.212;5.496;2023-04-19T09:14:09;6.30;;;2.50;;
69629;SDS011;56857;52.212;5.496;2023-04-19T09:16:36;5.38;;;2.65;;
69629;SDS011;56857;52.212;5.496;2023-04-19T09:19:02;6.13;;;2.00;;
69629;SDS011;56857;52.212;5.496;2023-04-19T09:21:28;5.63;;;2.28;;
69629;SDS011;56857;52.212;5.496;2023-04-19T09:23:54;5.25;;;2.65;;
69629;SDS011;56857;52.212;5.496;2023-04-19T09:26:20;6.57;;;3.20;;
69629;SDS011;56857;52.212;5.496;2023-04-19T09:28:55;5.68;;;2.70;;
69629;SDS011;56857;52.212;5.496;2023-04-19T09:31:24;6.10;;;2.67;;
69629;SDS011;56857;52.212;5.496;2023-04-19T09:33:50;7.55;;;3.22;;
69629;SDS011;56857;52.212;5.496;2023-04-19T09:36:26;7.03;;;2.73;;
69629;SDS011;56857;52.212;5.496;2023-04-19T09:38:52;4.57;;;2.33;;
69629;SDS011;56857;52.212;5.496;2023-04-19T09:41:18;5.47;;;2.40;;
69629;SDS011;56857;52.212;5.496;2023-04-19T09:43:43;4.80;;;1.90;;
69629;SDS011;56857;52.212;5.496;2023-04-19T09:46:21;5.78;;;2.70;;
69629;SDS011;56857;52.212;5.496;2023-04-19T09:48:54;4.90;;;2.50;;
69629;SDS011;56857;52.212;5.496;2023-04-19T09:51:19;6.00;;;2.45;;
69629;SDS011;56857;52.212;5.496;2023-04-19T09:53:45;5.40;;;2.38;;
69629;SDS011;56857;52.212;5.496;2023-04-19T09:56:11;4.28;;;2.20;;
69629;SDS011;56857;52.212;5.496;2023-04-19T09:58:37;4.88;;;2.80;;
69629;SDS011;56857;52.212;5.496;2023-04-19T10:01:02;5.95;;;2.55;;
69629;SDS011;56857;52.212;5.496;2023-04-19T10:03:28;5.15;;;2.10;;
69629;SDS011;56857;52.212;5.496;2023-04-19T10:05:55;4.57;;;2.30;;
69629;SDS011;56857;52.212;5.496;2023-04-19T10:08:21;4.57;;;2.28;;
69629;SDS011;56857;52.212;5.496;2023-04-19T10:10:49;4.90;;;2.50;;
69629;SDS011;56857;52.212;5.496;2023-04-19T10:13:15;5.00;;;2.40;;
69629;SDS011;56857;52.212;5.496;2023-04-19T10:15:43;6.45;;;2.30;;
69629;SDS011;56857;52.212;5.496;2023-04-19T10:18:09;6.28;;;2.70;;
69629;SDS011;56857;52.212;5.496;2023-04-19T10:23:06;5.75;;;2.40;;
69629;SDS011;56857;52.212;5.496;2023-04-19T10:25:35;5.10;;;2.40;;
69629;SDS011;56857;52.212;5.496;2023-04-19T10:28:01;4.75;;;2.22;;
69629;SDS011;56857;52.212;5.496;2023-04-19T10:30:26;8.15;;;2.00;;
69629;SDS011;56857;52.212;5.496;2023-04-19T10:32:53;5.55;;;2.50;;
69629;SDS011;56857;52.212;5.496;2023-04-19T10:35:24;4.75;;;2.10;;
69629;SDS011;56857;52.212;5.496;2023-04-19T10:38:04;4.95;;;2.00;;
69629;SDS011;56857;52.212;5.496;2023-04-19T10:40:58;5.72;;;2.42;;
69629;SDS011;56857;52.212;5.496;2023-04-19T10:43:24;11.07;;;2.50;;
69629;SDS011;56857;52.212;5.496;2023-04-19T10:45:53;4.32;;;2.00;;
69629;SDS011;56857;52.212;5.496;2023-04-19T10:53:44;5.32;;;2.70;;
69629;SDS011;56857;52.212;5.496;2023-04-19T11:01:31;5.63;;;2.67;;
69629;SDS011;56857;52.212;5.496;2023-04-19T11:03:58;7.93;;;2.28;;
69629;SDS011;56857;52.212;5.496;2023-04-19T11:06:23;8.35;;;2.45;;
69629;SDS011;56857;52.212;5.496;2023-04-19T11:08:48;4.35;;;2.30;;
69629;SDS011;56857;52.212;5.496;2023-04-19T11:11:15;5.95;;;2.50;;
69629;SDS011;56857;52.212;5.496;2023-04-19T11:13:43;6.00;;;2.33;;
69629;SDS011;56857;52.212;5.496;2023-04-19T11:16:11;6.65;;;2.80;;
69629;SDS011;56857;52.212;5.496;2023-04-19T11:18:37;4.53;;;2.50;;
69629;SDS011;56857;52.212;5.496;2023-04-19T11:21:02;5.50;;;3.00;;
69629;SDS011;56857;52.212;5.496;2023-04-19T11:23:28;6.78;;;2.85;;
69629;SDS011;56857;52.212;5.496;2023-04-19T11:25:54;5.90;;;2.75;;
69629;SDS011;56857;52.212;5.496;2023-04-19T11:28:19;9.07;;;2.85;;
69629;SDS011;56857;52.212;5.496;2023-04-19T11:30:45;7.10;;;3.03;;
69629;SDS011;56857;52.212;5.496;2023-04-19T11:33:11;6.15;;;3.40;;
69629;SDS011;56857;52.212;5.496;2023-04-19T11:35:37;6.82;;;3.28;;
69629;SDS011;56857;52.212;5.496;2023-04-19T11:38:02;5.05;;;2.60;;
69629;SDS011;56857;52.212;5.496;2023-04-19T11:40:27;7.03;;;3.13;;
69629;SDS011;56857;52.212;5.496;2023-04-19T11:42:54;6.03;;;3.08;;
69629;SDS011;56857;52.212;5.496;2023-04-19T11:45:30;5.32;;;2.75;;
69629;SDS011;56857;52.212;5.496;2023-04-19T11:47:57;5.95;;;3.20;;
69629;SDS011;56857;52.212;5.496;2023-04-19T11:50:38;6.32;;;2.97;;
69629;SDS011;56857;52.212;5.496;2023-04-19T11:55:37;5.15;;;2.80;;
69629;SDS011;56857;52.212;5.496;2023-04-19T11:58:05;8.10;;;3.53;;
69629;SDS011;56857;52.212;5.496;2023-04-19T12:00:31;12.57;;;2.83;;
69629;SDS011;56857;52.212;5.496;2023-04-19T12:02:57;9.38;;;3.15;;
69629;SDS011;56857;52.212;5.496;2023-04-19T12:05:23;8.10;;;3.08;;
69629;SDS011;56857;52.212;5.496;2023-04-19T12:07:59;6.90;;;2.95;;
69629;SDS011;56857;52.212;5.496;2023-04-19T12:10:29;6.57;;;3.15;;
69629;SDS011;56857;52.212;5.496;2023-04-19T12:12:54;6.60;;;3.03;;
69629;SDS011;56857;52.212;5.496;2023-04-19T12:15:20;6.55;;;3.67;;
69629;SDS011;56857;52.212;5.496;2023-04-19T12:17:58;7.25;;;3.40;;
69629;SDS011;56857;52.212;5.496;2023-04-19T12:20:28;6.85;;;3.28;;
69629;SDS011;56857;52.212;5.496;2023-04-19T12:22:53;7.57;;;3.63;;
69629;SDS011;56857;52.212;5.496;2023-04-19T12:25:18;6.53;;;3.13;;
69629;SDS011;56857;52.212;5.496;2023-04-19T12:27:43;7.45;;;3.67;;
69629;SDS011;56857;52.212;5.496;2023-04-19T12:30:09;7.33;;;3.73;;
69629;SDS011;56857;52.212;5.496;2023-04-19T12:32:34;7.40;;;3.15;;
69629;SDS011;56857;52.212;5.496;2023-04-19T12:34:59;5.47;;;3.33;;
69629;SDS011;56857;52.212;5.496;2023-04-19T12:37:25;6.20;;;3.10;;
69629;SDS011;56857;52.212;5.496;2023-04-19T12:39:50;7.07;;;2.92;;
69629;SDS011;56857;52.212;5.496;2023-04-19T12:42:15;6.75;;;3.08;;
69629;SDS011;56857;52.212;5.496;2023-04-19T12:44:41;6.60;;;3.25;;
69629;SDS011;56857;52.212;5.496;2023-04-19T12:47:06;6.47;;;3.03;;
69629;SDS011;56857;52.212;5.496;2023-04-19T12:49:31;7.80;;;3.45;;
69629;SDS011;56857;52.212;5.496;2023-04-19T12:51:57;7.50;;;3.15;;
69629;SDS011;56857;52.212;5.496;2023-04-19T12:54:22;6.20;;;3.00;;
69629;SDS011;56857;52.212;5.496;2023-04-19T12:56:47;7.25;;;3.10;;
69629;SDS011;56857;52.212;5.496;2023-04-19T12:59:12;5.85;;;2.83;;
69629;SDS011;56857;52.212;5.496;2023-04-19T13:01:38;10.00;;;3.20;;
69629;SDS011;56857;52.212;5.496;2023-04-19T13:04:03;6.53;;;3.22;;
69629;SDS011;56857;52.212;5.496;2023-04-19T13:06:29;9.05;;;3.25;;
69629;SDS011;56857;52.212;5.496;2023-04-19T13:08:54;6.65;;;2.90;;
69629;SDS011;56857;52.212;5.496;2023-04-19T13:11:19;7.95;;;3.53;;
69629;SDS011;56857;52.212;5.496;2023-04-19T13:13:45;8.73;;;3.72;;
69629;SDS011;56857;52.212;5.496;2023-04-19T13:16:10;6.32;;;3.38;;
69629;SDS011;56857;52.212;5.496;2023-04-19T13:18:35;5.60;;;3.20;;
69629;SDS011;56857;52.212;5.496;2023-04-19T13:21:00;7.32;;;3.40;;
69629;SDS011;56857;52.212;5.496;2023-04-19T13:23:26;12.32;;;3.25;;
69629;SDS011;56857;52.212;5.496;2023-04-19T13:25:51;5.70;;;3.10;;
69629;SDS011;56857;52.212;5.496;2023-04-19T13:28:16;5.32;;;2.78;;
69629;SDS011;56857;52.212;5.496;2023-04-19T13:30:42;6.40;;;2.83;;
69629;SDS011;56857;52.212;5.496;2023-04-19T13:33:07;8.18;;;3.15;;
69629;SDS011;56857;52.212;5.496;2023-04-19T13:35:32;7.20;;;2.60;;
69629;SDS011;56857;52.212;5.496;2023-04-19T13:37:58;6.63;;;3.30;;
69629;SDS011;56857;52.212;5.496;2023-04-19T13:40:23;7.55;;;3.00;;
69629;SDS011;56857;52.212;5.496;2023-04-19T13:42:48;7.43;;;2.90;;
69629;SDS011;56857;52.212;5.496;2023-04-19T13:45:14;6.75;;;2.83;;
69629;SDS011;56857;52.212;5.496;2023-04-19T13:47:39;6.22;;;2.60;;
69629;SDS011;56857;52.212;5.496;2023-04-19T13:50:05;6.55;;;2.60;;
69629;SDS011;56857;52.212;5.496;2023-04-19T13:52:30;5.80;;;2.60;;
69629;SDS011;56857;52.212;5.496;2023-04-19T13:54:56;10.15;;;3.97;;
69629;SDS011;56857;52.212;5.496;2023-04-19T13:57:21;6.17;;;2.87;;
69629;SDS011;56857;52.212;5.496;2023-04-19T13:59:46;7.72;;;3.35;;
69629;SDS011;56857;52.212;5.496;2023-04-19T14:02:12;8.27;;;2.77;;
69629;SDS011;56857;52.212;5.496;2023-04-19T14:04:37;5.00;;;2.55;;
69629;SDS011;56857;52.212;5.496;2023-04-19T14:07:02;5.93;;;3.10;;
69629;SDS011;56857;52.212;5.496;2023-04-19T14:09:28;5.47;;;2.85;;
69629;SDS011;56857;52.212;5.496;2023-04-19T14:11:53;7.00;;;2.83;;
69629;SDS011;56857;52.212;5.496;2023-04-19T14:14:18;4.93;;;2.50;;
69629;SDS011;56857;52.212;5.496;2023-04-19T14:16:44;5.03;;;2.73;;
69629;SDS011;56857;52.212;5.496;2023-04-19T14:19:09;5.53;;;2.67;;
69629;SDS011;56857;52.212;5.496;2023-04-19T14:21:34;7.03;;;3.00;;
69629;SDS011;56857;52.212;5.496;2023-04-19T14:24:00;5.85;;;2.90;;
69629;SDS011;56857;52.212;5.496;2023-04-19T14:26:25;7.30;;;2.80;;
69629;SDS011;56857;52.212;5.496;2023-04-19T14:28:51;6.90;;;3.00;;
69629;SDS011;56857;52.212;5.496;2023-04-19T14:31:16;6.95;;;3.15;;
69629;SDS011;56857;52.212;5.496;2023-04-19T14:33:42;5.88;;;2.50;;
69629;SDS011;56857;52.212;5.496;2023-04-19T14:36:07;6.05;;;2.80;;
69629;SDS011;56857;52.212;5.496;2023-04-19T14:38:33;6.15;;;3.20;;
69629;SDS011;56857;52.212;5.496;2023-04-19T14:40:58;6.40;;;3.00;;
69629;SDS011;56857;52.212;5.496;2023-04-19T14:43:24;8.80;;;3.08;;
69629;SDS011;56857;52.212;5.496;2023-04-19T14:45:49;7.27;;;3.00;;
69629;SDS011;56857;52.212;5.496;2023-04-19T14:48:17;6.57;;;3.05;;